createdAt,value
2019-03-22T00:00:18.897Z,197.32
2019-03-22T00:02:47.469Z,178.20
2019-03-22T00:05:16.066Z,191.12
2019-03-22T00:07:44.531Z,193.13
2019-03-22T00:10:13.076Z,214.23
2019-03-22T00:12:41.596Z,221.70
2019-03-22T00:15:10.673Z,225.70
2019-03-22T00:17:39.401Z,219.60
2019-03-22T00:20:08.510Z,202.10
2019-03-22T00:22:37.005Z,228.62
2019-03-22T00:25:07.529Z,235.05
2019-03-22T00:27:35.994Z,352.13
2019-03-22T00:30:08.819Z,470.73
2019-03-22T00:32:37.272Z,381.85
2019-03-22T00:35:07.513Z,403.15
2019-03-22T00:37:36.034Z,472.13
2019-03-22T00:40:06.596Z,513.22
2019-03-22T00:42:35.074Z,434.30
2019-03-22T00:45:05.630Z,404.83
2019-03-22T00:47:34.114Z,321.37
2019-03-22T00:50:03.713Z,428.40
2019-03-22T00:52:32.242Z,449.40
2019-03-22T00:55:00.803Z,428.58
2019-03-22T00:57:29.334Z,380.27
2019-03-22T00:59:58.130Z,347.85
2019-03-22T01:02:26.595Z,307.60
2019-03-22T01:04:55.047Z,405.25
2019-03-22T01:07:23.532Z,332.02
2019-03-22T01:09:51.987Z,343.73
2019-03-22T01:12:21.131Z,402.88
2019-03-22T01:14:49.605Z,329.85
2019-03-22T01:17:18.106Z,294.90
2019-03-22T01:19:46.562Z,314.77
2019-03-22T01:22:15.038Z,303.92
2019-03-22T01:24:43.529Z,317.23
2019-03-22T01:27:11.993Z,263.43
2019-03-22T01:29:40.450Z,373.20
2019-03-22T01:32:09.003Z,315.37
2019-03-22T01:34:37.469Z,286.30
2019-03-22T01:37:06.046Z,284.67
2019-03-22T01:39:34.571Z,308.73
2019-03-22T01:42:03.507Z,401.93
2019-03-22T01:44:32.004Z,191.80
2019-03-22T01:47:00.468Z,318.02
2019-03-22T01:49:28.922Z,492.72
2019-03-22T01:51:57.471Z,329.95
2019-03-22T01:54:25.940Z,369.05
2019-03-22T01:56:54.456Z,429.72
2019-03-22T01:59:22.990Z,269.40
2019-03-22T02:01:51.445Z,241.17
2019-03-22T02:04:19.978Z,319.52
2019-03-22T02:06:48.528Z,329.02
2019-03-22T02:09:17.097Z,278.58
2019-03-22T02:11:45.906Z,253.00
2019-03-22T02:14:14.363Z,235.90
2019-03-22T02:16:43.119Z,246.18
2019-03-22T02:19:11.668Z,307.02
2019-03-22T02:21:41.325Z,244.00
2019-03-22T02:24:09.801Z,198.40
2019-03-22T02:26:38.302Z,269.73
2019-03-22T02:29:07.844Z,239.82
2019-03-22T02:31:36.310Z,190.73
2019-03-22T02:34:04.945Z,223.85
2019-03-22T02:36:33.436Z,165.37
2019-03-22T02:39:02.232Z,183.45
2019-03-22T02:41:30.769Z,316.08
2019-03-22T02:43:59.227Z,187.95
2019-03-22T02:46:27.777Z,221.00
2019-03-22T02:48:56.309Z,209.20
2019-03-22T02:51:24.810Z,286.90
2019-03-22T02:53:53.359Z,229.85
2019-03-22T02:56:22.241Z,190.47
2019-03-22T02:58:51.229Z,176.15
2019-03-22T03:01:19.719Z,187.85
2019-03-22T03:03:48.234Z,212.78
2019-03-22T03:06:16.816Z,227.25
2019-03-22T03:08:45.364Z,197.17
2019-03-22T03:11:13.850Z,223.85
2019-03-22T03:13:42.319Z,122.95
2019-03-22T03:16:10.922Z,169.72
2019-03-22T03:18:39.410Z,274.23
2019-03-22T03:21:07.948Z,281.68
2019-03-22T03:23:36.435Z,314.02
2019-03-22T03:26:05.058Z,325.73
2019-03-22T03:28:37.062Z,310.08
2019-03-22T03:31:03.895Z,313.30
2019-03-22T03:33:32.413Z,359.05
2019-03-22T03:36:00.975Z,361.00
2019-03-22T03:38:29.507Z,490.47
2019-03-22T03:40:58.068Z,427.23
2019-03-22T03:43:26.947Z,433.35
2019-03-22T03:45:55.760Z,352.52
2019-03-22T03:48:24.349Z,565.83
2019-03-22T03:50:52.905Z,410.27
2019-03-22T03:53:21.383Z,504.42
2019-03-22T03:55:49.901Z,488.18
2019-03-22T03:58:18.446Z,419.58
2019-03-22T04:00:46.983Z,452.30
2019-03-22T04:03:15.465Z,416.02
2019-03-22T04:05:44.382Z,470.62
2019-03-22T04:08:12.844Z,460.25
2019-03-22T04:10:41.383Z,439.07
2019-03-22T04:13:09.912Z,343.27
2019-03-22T04:15:38.537Z,323.93
2019-03-22T04:18:07.034Z,329.27
2019-03-22T04:20:35.581Z,309.12
2019-03-22T04:23:04.269Z,286.92
2019-03-22T04:25:32.842Z,227.45
2019-03-22T04:28:01.398Z,239.80
2019-03-22T04:30:30.157Z,563.87
2019-03-22T04:32:58.772Z,220.40
2019-03-22T04:35:27.301Z,220.50
2019-03-22T04:37:55.801Z,269.20
2019-03-22T04:40:29.358Z,335.82
2019-03-22T04:42:58.464Z,238.20
2019-03-22T04:45:30.341Z,202.93
2019-03-22T04:48:19.447Z,241.17
2019-03-22T04:50:49.282Z,472.10
2019-03-22T04:53:22.094Z,279.52
2019-03-22T04:55:53.963Z,362.93
2019-03-22T04:58:24.532Z,331.47
2019-03-22T05:00:54.975Z,305.43
2019-03-22T05:03:25.546Z,314.27
2019-03-22T05:05:57.375Z,283.38
2019-03-22T05:08:27.448Z,246.65
2019-03-22T05:10:57.986Z,379.48
2019-03-22T05:13:29.180Z,276.42
2019-03-22T05:15:58.295Z,229.23
2019-03-22T05:18:29.242Z,220.75
2019-03-22T05:20:58.848Z,180.93
2019-03-22T05:23:28.561Z,220.40
2019-03-22T05:25:59.909Z,204.38
2019-03-22T05:28:30.708Z,222.90
2019-03-22T05:31:05.129Z,365.95
2019-03-22T05:33:33.617Z,432.55
2019-03-22T05:36:02.160Z,191.65
2019-03-22T05:38:31.076Z,190.45
2019-03-22T05:40:59.577Z,225.53
2019-03-22T05:43:28.076Z,188.37
2019-03-22T05:45:56.653Z,441.18
2019-03-22T05:48:25.152Z,200.95
2019-03-22T05:50:53.693Z,201.55
2019-03-22T05:53:22.239Z,506.07
2019-03-22T05:55:50.795Z,666.92
2019-03-22T05:58:19.286Z,229.80
2019-03-22T06:00:47.798Z,572.35
2019-03-22T06:03:16.262Z,795.77
2019-03-22T06:05:44.746Z,371.18
2019-03-22T06:08:13.399Z,1030.98
2019-03-22T06:10:41.849Z,497.48
2019-03-22T06:13:10.337Z,1111.00
2019-03-22T06:15:39.314Z,807.77
2019-03-22T06:18:07.777Z,298.48
2019-03-22T06:20:36.249Z,343.57
2019-03-22T06:23:04.906Z,623.97
2019-03-22T06:25:33.370Z,309.00
2019-03-22T06:28:01.941Z,284.95
2019-03-22T06:30:31.639Z,281.40
2019-03-22T06:33:00.160Z,480.55
2019-03-22T06:35:28.681Z,351.02
2019-03-22T06:37:57.247Z,694.20
2019-03-22T06:40:25.713Z,258.60
2019-03-22T06:42:54.499Z,240.85
2019-03-22T06:45:23.077Z,234.00
2019-03-22T06:47:51.607Z,217.75
2019-03-22T06:50:20.107Z,222.17
2019-03-22T06:52:48.655Z,172.30
2019-03-22T06:55:17.123Z,320.05
2019-03-22T06:57:45.611Z,305.30
2019-03-22T07:00:14.213Z,193.85
2019-03-22T07:02:42.781Z,182.12
2019-03-22T07:05:13.478Z,187.72
2019-03-22T07:07:41.661Z,191.07
2019-03-22T07:10:11.487Z,223.75
2019-03-22T07:12:40.029Z,218.50
2019-03-22T07:15:08.885Z,220.17
2019-03-22T07:17:37.486Z,223.62
2019-03-22T07:20:07.400Z,148.60
2019-03-22T07:22:36.243Z,216.00
2019-03-22T07:25:07.286Z,229.47
2019-03-22T07:27:35.749Z,173.22
2019-03-22T07:30:17.917Z,187.07
2019-03-22T07:32:37.310Z,437.92
2019-03-22T07:35:06.521Z,536.52
2019-03-22T07:37:34.974Z,495.15
2019-03-22T07:40:05.552Z,406.05
2019-03-22T07:42:34.119Z,317.73
2019-03-22T07:45:02.591Z,160.00
2019-03-22T07:47:31.102Z,152.38
2019-03-22T07:49:59.558Z,150.50
2019-03-22T07:52:28.030Z,191.92
2019-03-22T07:54:56.546Z,154.10
2019-03-22T07:57:25.010Z,162.18
2019-03-22T07:59:53.799Z,136.60
2019-03-22T08:02:22.303Z,137.40
2019-03-22T08:04:50.857Z,95.28
2019-03-22T08:07:19.360Z,199.30
2019-03-22T08:09:51.051Z,105.03
2019-03-22T08:12:19.483Z,301.52
2019-03-22T08:14:48.397Z,198.87
2019-03-22T08:17:16.934Z,219.35
2019-03-22T08:19:45.437Z,175.40
2019-03-22T08:22:14.022Z,177.20
2019-03-22T08:24:42.614Z,221.82
2019-03-22T08:27:11.185Z,133.07
2019-03-22T08:29:39.686Z,171.80
2019-03-22T08:32:08.310Z,160.72
2019-03-22T08:34:36.855Z,109.05
2019-03-22T08:37:05.416Z,236.72
2019-03-22T08:39:33.980Z,141.43
2019-03-22T08:42:02.588Z,102.50
2019-03-22T08:44:31.171Z,94.55
2019-03-22T08:46:59.736Z,80.75
2019-03-22T08:49:28.423Z,85.83
2019-03-22T08:51:56.954Z,93.35
2019-03-22T08:54:25.476Z,87.60
2019-03-22T08:56:54.001Z,85.77
2019-03-22T08:59:22.525Z,69.35
2019-03-22T09:01:50.999Z,75.55
2019-03-22T09:04:19.519Z,69.30
2019-03-22T09:06:48.094Z,67.20
2019-03-22T09:09:16.661Z,64.30
2019-03-22T09:11:45.243Z,63.68
2019-03-22T09:14:14.126Z,60.78
2019-03-22T09:16:42.712Z,54.05
2019-03-22T09:19:11.311Z,51.02
2019-03-22T09:21:39.840Z,49.70
2019-03-22T09:24:08.327Z,50.58
2019-03-22T09:26:47.207Z,49.75
2019-03-22T09:29:07.084Z,44.55
2019-03-22T09:31:35.677Z,41.42
2019-03-22T09:34:04.197Z,40.12
2019-03-22T09:36:32.815Z,45.98
2019-03-22T09:39:02.281Z,44.88
2019-03-22T09:41:30.833Z,38.28
2019-03-22T09:43:59.364Z,36.20
2019-03-22T09:46:27.887Z,41.63
2019-03-22T09:48:56.520Z,37.13
2019-03-22T09:51:25.090Z,31.57
2019-03-22T09:53:53.585Z,36.77
2019-03-22T09:56:22.259Z,32.55
2019-03-22T09:58:51.636Z,33.00
2019-03-22T10:01:24.044Z,34.55
2019-03-22T10:03:50.396Z,35.92
2019-03-22T10:06:18.931Z,33.88
2019-03-22T10:08:47.516Z,34.78
2019-03-22T10:11:16.063Z,28.55
2019-03-22T10:13:44.620Z,33.05
2019-03-22T10:16:13.177Z,31.55
2019-03-22T10:18:41.763Z,33.05
2019-03-22T10:21:21.936Z,31.93
2019-03-22T10:23:42.424Z,30.37
2019-03-22T10:26:10.702Z,30.70
2019-03-22T10:28:39.252Z,32.60
2019-03-22T10:31:07.741Z,35.90
2019-03-22T10:33:36.683Z,35.65
2019-03-22T10:36:05.908Z,36.50
2019-03-22T10:38:34.489Z,38.35
2019-03-22T10:41:03.065Z,32.63
2019-03-22T10:43:31.559Z,39.63
2019-03-22T10:46:00.490Z,38.15
2019-03-22T10:48:28.990Z,34.67
2019-03-22T10:50:57.507Z,35.30
2019-03-22T10:53:26.147Z,34.98
2019-03-22T10:55:54.695Z,33.35
2019-03-22T10:58:23.743Z,32.03
2019-03-22T11:00:52.371Z,30.52
2019-03-22T11:03:20.857Z,30.57
2019-03-22T11:05:49.696Z,31.33
2019-03-22T11:08:18.238Z,31.95
2019-03-22T11:10:46.769Z,32.03
2019-03-22T11:13:15.273Z,27.55
2019-03-22T11:15:48.381Z,30.80
2019-03-22T11:18:13.963Z,31.70
2019-03-22T11:20:42.461Z,30.55
2019-03-22T11:23:10.965Z,33.23
2019-03-22T11:25:39.454Z,29.63
2019-03-22T11:28:08.024Z,28.60
2019-03-22T11:30:36.593Z,30.65
2019-03-22T11:33:05.310Z,31.27
2019-03-22T11:35:33.975Z,25.08
2019-03-22T11:38:02.526Z,28.47
2019-03-22T11:40:33.203Z,28.47
2019-03-22T11:43:08.497Z,29.92
2019-03-22T11:45:31.906Z,27.10
2019-03-22T11:48:00.614Z,27.07
2019-03-22T11:50:29.403Z,28.40
2019-03-22T11:52:59.543Z,24.87
2019-03-22T11:55:28.068Z,23.87
2019-03-22T11:57:56.555Z,25.75
2019-03-22T12:00:26.174Z,25.88
2019-03-22T12:02:54.804Z,27.30
2019-03-22T12:05:23.623Z,24.67
2019-03-22T12:07:52.163Z,26.17
2019-03-22T12:10:21.291Z,23.40
2019-03-22T12:12:49.908Z,28.25
2019-03-22T12:15:20.962Z,27.82
2019-03-22T12:17:49.615Z,24.98
2019-03-22T12:20:23.812Z,27.90
2019-03-22T12:22:52.915Z,24.85
2019-03-22T12:25:26.005Z,23.62
2019-03-22T12:27:54.574Z,23.98
2019-03-22T12:30:23.097Z,23.02
2019-03-22T12:32:51.742Z,23.55
2019-03-22T12:35:20.371Z,21.20
2019-03-22T12:37:49.253Z,23.50
2019-03-22T12:40:22.552Z,21.48
2019-03-22T12:42:51.196Z,22.73
2019-03-22T12:45:27.831Z,21.27
2019-03-22T12:47:56.582Z,24.10
2019-03-22T12:50:26.982Z,25.30
2019-03-22T12:52:55.765Z,29.57
2019-03-22T12:55:24.401Z,24.63
2019-03-22T12:57:52.985Z,20.52
2019-03-22T13:00:25.079Z,22.42
2019-03-22T13:02:53.836Z,20.90
2019-03-22T13:05:22.640Z,20.52
2019-03-22T13:07:51.913Z,21.52
2019-03-22T13:10:24.556Z,22.00
2019-03-22T13:12:53.140Z,23.15
2019-03-22T13:15:21.762Z,20.60
2019-03-22T13:17:50.279Z,19.35
2019-03-22T13:20:19.041Z,21.35
2019-03-22T13:22:47.925Z,21.40
2019-03-22T13:25:17.770Z,27.25
2019-03-22T13:27:46.410Z,20.55
2019-03-22T13:30:35.547Z,22.75
2019-03-22T13:33:04.806Z,26.35
2019-03-22T13:35:33.358Z,28.35
2019-03-22T13:38:01.889Z,28.00
2019-03-22T13:40:30.438Z,24.50
2019-03-22T13:42:59.092Z,27.70
2019-03-22T13:45:27.706Z,28.87
2019-03-22T13:47:56.365Z,27.85
2019-03-22T13:50:25.365Z,31.10
2019-03-22T13:52:53.885Z,30.65
2019-03-22T13:55:22.456Z,32.17
2019-03-22T13:57:50.938Z,31.25
2019-03-22T14:00:20.071Z,31.52
2019-03-22T14:02:48.624Z,31.55
2019-03-22T14:05:17.251Z,27.62
2019-03-22T14:07:45.753Z,29.23
2019-03-22T14:10:31.837Z,29.67
2019-03-22T14:13:01.709Z,31.45
2019-03-22T14:15:30.538Z,30.50
2019-03-22T14:17:59.228Z,30.62
2019-03-22T14:20:27.850Z,28.45
2019-03-22T14:22:56.313Z,37.05
2019-03-22T14:25:24.805Z,29.55
2019-03-22T14:27:53.993Z,31.68
2019-03-22T14:30:22.494Z,29.55
2019-03-22T14:32:51.047Z,31.75
2019-03-22T14:35:19.586Z,31.82
2019-03-22T14:37:48.066Z,31.93
2019-03-22T14:40:16.713Z,31.20
2019-03-22T14:42:45.204Z,29.02
2019-03-22T14:45:13.824Z,29.70
2019-03-22T14:47:42.304Z,28.45
2019-03-22T14:50:11.517Z,32.35
2019-03-22T14:52:40.116Z,32.98
2019-03-22T14:55:08.697Z,29.25
2019-03-22T14:57:47.815Z,31.97
2019-03-22T15:00:09.842Z,33.75
2019-03-22T15:02:38.415Z,25.90
2019-03-22T15:05:07.342Z,31.50
2019-03-22T15:07:35.840Z,25.30
2019-03-22T15:10:07.275Z,30.17
2019-03-22T15:12:35.787Z,29.52
2019-03-22T15:15:25.554Z,26.77
2019-03-22T15:18:01.787Z,29.95
2019-03-22T15:20:31.925Z,25.08
2019-03-22T15:23:09.870Z,28.23
2019-03-22T15:25:55.907Z,28.32
2019-03-22T15:28:28.729Z,30.17
2019-03-22T15:31:11.034Z,28.98
2019-03-22T15:33:54.646Z,31.70
2019-03-22T15:36:44.585Z,30.55
2019-03-22T15:39:17.524Z,30.35
2019-03-22T15:41:46.143Z,33.03
2019-03-22T15:44:14.889Z,38.83
2019-03-22T15:46:43.499Z,43.00
2019-03-22T15:49:12.064Z,44.42
2019-03-22T15:51:40.584Z,50.55
2019-03-22T15:54:09.139Z,42.48
2019-03-22T15:56:37.749Z,42.80
2019-03-22T15:59:06.308Z,43.75
2019-03-22T16:01:35.846Z,40.33
2019-03-22T16:04:04.489Z,48.13
2019-03-22T16:06:32.956Z,46.18
2019-03-22T16:09:01.440Z,43.75
2019-03-22T16:11:30.012Z,41.20
2019-03-22T16:13:58.477Z,47.03
2019-03-22T16:16:26.965Z,42.85
2019-03-22T16:18:55.465Z,44.77
2019-03-22T16:21:24.057Z,44.20
2019-03-22T16:23:52.537Z,45.75
2019-03-22T16:26:21.067Z,46.05
2019-03-22T16:28:49.576Z,44.00
2019-03-22T16:31:18.126Z,43.08
2019-03-22T16:33:54.034Z,44.13
2019-03-22T16:36:16.913Z,49.90
2019-03-22T16:38:45.436Z,42.90
2019-03-22T16:41:13.996Z,46.40
2019-03-22T16:43:42.652Z,43.38
2019-03-22T16:46:11.199Z,40.65
2019-03-22T16:48:39.858Z,44.67
2019-03-22T16:51:08.431Z,43.55
2019-03-22T16:53:37.026Z,44.67
2019-03-22T16:56:05.691Z,40.28
2019-03-22T16:58:34.326Z,43.87
2019-03-22T17:01:02.924Z,43.70
2019-03-22T17:03:31.513Z,43.15
2019-03-22T17:06:00.436Z,44.75
2019-03-22T17:08:28.902Z,45.20
2019-03-22T17:10:57.428Z,42.15
2019-03-22T17:13:25.901Z,45.45
2019-03-22T17:15:54.393Z,40.80
2019-03-22T17:18:23.000Z,45.63
2019-03-22T17:20:51.563Z,43.42
2019-03-22T17:23:20.170Z,42.88
2019-03-22T17:25:48.661Z,41.92
2019-03-22T17:28:17.263Z,39.40
2019-03-22T17:30:45.755Z,39.67
2019-03-22T17:33:14.273Z,40.40
2019-03-22T17:35:42.881Z,41.23
2019-03-22T17:38:11.549Z,42.25
2019-03-22T17:40:40.213Z,44.88
2019-03-22T17:43:08.718Z,35.78
2019-03-22T17:45:37.265Z,41.65
2019-03-22T17:48:05.841Z,41.83
2019-03-22T17:50:34.381Z,47.45
2019-03-22T17:53:02.872Z,44.08
2019-03-22T17:55:31.347Z,37.78
2019-03-22T17:57:59.845Z,41.37
2019-03-22T18:00:29.238Z,41.60
2019-03-22T18:02:57.717Z,42.25
2019-03-22T18:05:26.192Z,41.92
2019-03-22T18:07:54.676Z,44.18
2019-03-22T18:10:23.237Z,40.70
2019-03-22T18:12:51.717Z,42.98
2019-03-22T18:15:20.513Z,49.00
2019-03-22T18:17:49.023Z,56.15
2019-03-22T18:20:17.633Z,56.53
2019-03-22T18:22:46.200Z,84.67
2019-03-22T18:25:15.793Z,92.50
2019-03-22T18:27:44.378Z,88.27
2019-03-22T18:30:14.540Z,93.20
2019-03-22T18:32:43.011Z,83.58
2019-03-22T18:35:12.173Z,92.97
2019-03-22T18:37:40.675Z,85.62
2019-03-22T18:40:15.187Z,102.27
2019-03-22T18:42:44.152Z,102.55
2019-03-22T18:45:13.666Z,113.68
2019-03-22T18:47:42.898Z,122.25
2019-03-22T18:50:12.336Z,118.93
2019-03-22T18:52:40.898Z,125.22
2019-03-22T18:55:10.104Z,134.07
2019-03-22T18:57:38.593Z,145.97
2019-03-22T19:00:09.278Z,138.55
2019-03-22T19:02:37.881Z,132.60
2019-03-22T19:05:08.113Z,136.22
2019-03-22T19:07:36.607Z,144.07
2019-03-22T19:10:08.160Z,142.40
2019-03-22T19:12:36.634Z,153.35
2019-03-22T19:15:07.854Z,155.65
2019-03-22T19:17:36.601Z,138.77
2019-03-22T19:20:07.904Z,144.37
2019-03-22T19:22:36.462Z,152.02
2019-03-22T19:25:06.794Z,148.60
2019-03-22T19:27:35.727Z,147.10
2019-03-22T19:30:09.994Z,151.22
2019-03-22T19:32:38.476Z,165.05
2019-03-22T19:35:08.872Z,167.00
2019-03-22T19:37:37.432Z,167.62
2019-03-22T19:40:13.785Z,168.32
2019-03-22T19:42:42.409Z,176.07
2019-03-22T19:45:13.455Z,178.23
2019-03-22T19:47:42.089Z,183.70
2019-03-22T19:50:12.980Z,194.05
2019-03-22T19:52:42.911Z,191.25
2019-03-22T19:55:12.274Z,184.67
2019-03-22T19:57:40.742Z,178.95
2019-03-22T20:00:17.232Z,180.85
2019-03-22T20:02:45.821Z,209.22
2019-03-22T20:05:17.384Z,204.90
2019-03-22T20:07:46.143Z,194.10
2019-03-22T20:10:14.736Z,189.05
2019-03-22T20:12:43.277Z,221.68
2019-03-22T20:15:11.879Z,208.30
2019-03-22T20:17:40.340Z,202.07
2019-03-22T20:20:09.734Z,210.10
2019-03-22T20:22:38.290Z,211.20
2019-03-22T20:25:08.437Z,222.65
2019-03-22T20:27:37.330Z,233.38
2019-03-22T20:30:08.254Z,242.30
2019-03-22T20:32:36.797Z,231.78
2019-03-22T20:35:16.196Z,234.75
2019-03-22T20:37:39.898Z,246.40
2019-03-22T20:40:11.520Z,241.63
2019-03-22T20:42:40.060Z,240.82
2019-03-22T20:45:09.083Z,270.97
2019-03-22T20:47:37.632Z,252.20
2019-03-22T20:50:07.928Z,261.98
2019-03-22T20:52:36.415Z,274.40
2019-03-22T20:55:09.670Z,253.27
2019-03-22T20:57:38.329Z,270.90
2019-03-22T21:00:12.974Z,268.97
2019-03-22T21:02:41.471Z,273.40
2019-03-22T21:05:12.531Z,283.07
2019-03-22T21:07:41.008Z,282.55
2019-03-22T21:10:10.873Z,303.48
2019-03-22T21:12:39.562Z,291.47
2019-03-22T21:15:10.777Z,290.55
2019-03-22T21:17:40.727Z,316.08
2019-03-22T21:20:11.307Z,321.23
2019-03-22T21:22:39.847Z,308.75
2019-03-22T21:25:09.843Z,304.43
2019-03-22T21:27:38.319Z,320.63
2019-03-22T21:30:08.749Z,301.85
2019-03-22T21:32:45.144Z,315.77
2019-03-22T21:35:08.422Z,324.75
2019-03-22T21:37:37.415Z,299.77
2019-03-22T21:40:07.637Z,290.32
2019-03-22T21:42:36.134Z,361.92
2019-03-22T21:45:06.392Z,264.90
2019-03-22T21:47:35.861Z,289.08
2019-03-22T21:50:06.891Z,262.20
2019-03-22T21:52:35.606Z,286.10
2019-03-22T21:55:05.025Z,273.02
2019-03-22T21:57:33.484Z,286.73
2019-03-22T22:00:01.981Z,288.12
2019-03-22T22:02:30.505Z,284.32
2019-03-22T22:04:58.958Z,287.60
2019-03-22T22:07:27.434Z,283.35
2019-03-22T22:09:55.904Z,292.73
2019-03-22T22:12:24.659Z,281.93
2019-03-22T22:14:53.191Z,257.48
2019-03-22T22:17:21.647Z,316.48
2019-03-22T22:19:50.117Z,445.00
2019-03-22T22:22:18.646Z,302.68
2019-03-22T22:24:47.193Z,300.45
2019-03-22T22:27:15.826Z,314.45
2019-03-22T22:29:44.319Z,363.37
2019-03-22T22:32:12.789Z,305.83
2019-03-22T22:34:41.242Z,269.55
2019-03-22T22:37:09.740Z,280.05
2019-03-22T22:39:38.207Z,271.35
2019-03-22T22:42:06.740Z,272.48
2019-03-22T22:44:35.199Z,291.52
2019-03-22T22:47:03.658Z,261.27
2019-03-22T22:49:32.135Z,276.77
2019-03-22T22:52:00.592Z,279.85
2019-03-22T22:54:29.047Z,280.07
2019-03-22T22:56:57.513Z,275.40
2019-03-22T22:59:25.977Z,241.17
2019-03-22T23:01:54.458Z,237.82
2019-03-22T23:04:22.915Z,230.67
2019-03-22T23:06:51.439Z,226.85
2019-03-22T23:09:20.395Z,210.50
2019-03-22T23:11:48.919Z,214.75
2019-03-22T23:14:17.407Z,203.25
2019-03-22T23:16:45.861Z,189.97
2019-03-22T23:19:14.314Z,201.92
2019-03-22T23:21:42.795Z,183.00
2019-03-22T23:24:11.244Z,174.45
2019-03-22T23:26:39.727Z,192.53
2019-03-22T23:29:08.189Z,188.25
2019-03-22T23:31:36.641Z,185.05
2019-03-22T23:34:05.172Z,179.45
2019-03-22T23:36:33.630Z,195.20
2019-03-22T23:39:02.177Z,186.28
2019-03-22T23:41:30.637Z,176.02
2019-03-22T23:43:59.094Z,205.72
2019-03-22T23:46:27.890Z,210.93
2019-03-22T23:48:56.342Z,193.55
2019-03-22T23:51:24.885Z,191.85
2019-03-22T23:53:53.327Z,212.10
2019-03-22T23:56:21.790Z,210.88
2019-03-22T23:58:50.276Z,201.40
